Latest Weather Observations for Roxby Downs

IDS60801

Issued at 11:41 pm CST Tuesday 19 June 2018 (issued every 10 minutes, with the page automatically refreshed every 10 minutes)

About weather observations | Map of weather stations | Latest weather observations for SA | Other Formats
Station Details ID: 016096 Name: OLYMPIC DAM AERODROME Lat: -30.48 Lon: 136.88 Height: 98.5 m
Data from the previous 72 hours. | See also: Recent months at Roxby Downs
Date/Time
CST
Temp
°C
App
Temp
°C
Dew
Point
°C
Rel
Hum
%
Delta-T
°C
Wind Press
QNH
hPa
Press
MSL
hPa
Rain since
9am
mm
Dir  Spd
km/h
Gust
km/h
Spd
kts
Gust
kts
19/11:30pm 9.4 6.0 -0.8 49 4.0 NNW 7 13 4 7 1025.5 1025.6 0.0
19/11:00pm 9.4 5.6 -0.8 49 4.0 N 9 13 5 7 1025.4 1025.5 0.0
19/10:30pm 9.5 5.0 -0.4 50 3.9 NE 13 15 7 8 1025.0 1025.1 0.0
19/10:00pm 9.2 5.4 -0.7 50 3.9 NNE 9 11 5 6 1025.4 1025.5 0.0
19/09:30pm 9.4 5.6 -0.5 50 3.9 NNE 9 11 5 6 1025.4 1025.5 0.0
19/09:00pm 9.0 5.2 -0.6 51 3.8 NE 9 11 5 6 1024.9 1025.0 0.0
19/08:30pm 9.1 5.9 -0.5 51 3.8 NE 6 9 3 5 1025.3 1025.4 0.0
19/08:00pm 9.6 5.9 -0.3 50 4.0 ENE 9 11 5 6 1025.3 1025.4 0.0
19/07:30pm 9.3 5.9 -0.3 51 3.8 NE 7 11 4 6 1025.9 1026.0 0.0
19/07:00pm 9.3 5.6 -0.3 51 3.8 E 9 11 5 6 1025.3 1025.4 0.0
19/06:30pm 10.0 7.9 -0.5 48 4.2 CALM 0 0 0 0 1025.5 1025.6 0.0
19/06:00pm 10.8 7.4 -0.3 46 4.5 NE 7 11 4 6 1024.8 1024.9 0.0
19/05:30pm 11.6 7.5 -0.2 44 4.8 NE 11 13 6 7 1024.0 1024.1 0.0
19/05:00pm 12.1 8.0 -0.4 42 5.1 N 11 15 6 8 1024.3 1024.4 0.0
19/04:30pm 12.3 7.8 -0.6 41 5.2 NNE 13 17 7 9 1024.2 1024.3 0.0
19/04:00pm 12.6 7.3 -0.6 40 5.4 NNE 17 20 9 11 1024.4 1024.5 0.0
19/03:30pm 12.7 7.4 -0.5 40 5.4 N 17 22 9 12 1024.9 1025.0 0.0
19/03:00pm 12.7 7.4 -0.5 40 5.4 N 17 24 9 13 1024.3 1024.4 0.0
19/02:30pm 12.6 6.9 -0.6 40 5.4 N 19 28 10 15 1024.4 1024.5 0.0
19/02:00pm 12.9 7.7 0.0 41 5.4 N 17 24 9 13 1024.8 1024.9 0.0
19/01:30pm 12.4 7.2 -0.1 42 5.1 NNW 17 28 9 15 1025.6 1025.7 0.0
19/01:00pm 12.7 7.1 -0.2 41 5.3 N 19 28 10 15 1026.2 1026.3 0.0
19/12:30pm 12.9 7.1 0.0 41 5.3 N 20 32 11 17 1026.9 1026.9 0.0
19/12:00pm 13.4 6.5 0.1 40 5.5 N 26 35 14 19 1027.3 1027.3 0.0
19/11:30am 13.3 7.2 0.3 41 5.4 N 22 32 12 17 1027.6 1027.6 0.0
19/11:00am 11.9 5.0 0.1 44 4.9 N 26 33 14 18 1028.2 1028.3 0.0
19/10:30am 11.5 5.0 0.3 46 4.6 N 24 35 13 19 1028.4 1028.5 0.0
19/10:00am 10.3 4.6 0.3 50 4.1 N 20 28 11 15 1028.5 1028.6 0.0
19/09:30am 8.5 3.7 0.5 57 3.2 NNE 15 20 8 11 1028.6 1028.7 0.0
19/09:00am 7.1 1.9 0.3 62 2.7 N 17 22 9 12 1028.6 1028.7 0.0
19/08:30am 5.7 1.3 0.1 67 2.1 NNE 13 20 7 11 1028.1 1028.2 0.0
19/08:00am 4.1 0.0 -0.5 72 1.7 NNE 11 15 6 8 1027.9 1028.0 0.0
19/07:30am 3.8 -0.3 -0.2 75 1.5 NNE 11 13 6 7 1027.9 1028.0 0.0
19/07:00am 2.9 -0.8 -0.2 80 1.2 NNE 9 13 5 7 1027.9 1028.0 0.0
19/06:30am 2.1 -1.7 -1.0 80 1.1 NE 9 11 5 6 1027.6 1027.6 0.0
19/06:00am 2.3 -1.6 -1.3 77 1.3 NE 9 11 5 6 1027.5 1027.5 0.0
19/05:30am 3.2 -0.6 -0.8 75 1.5 NNE 9 9 5 5 1027.4 1027.4 0.0
19/05:00am 4.0 -0.1 -0.4 73 1.6 NNE 11 13 6 7 1027.2 1027.2 0.0
19/04:30am 3.1 -1.0 0.0 80 1.2 NE 11 13 6 7 1027.2 1027.2 0.0
19/04:00am 1.0 -2.9 -1.6 83 0.9 NE 9 11 5 6 1027.3 1027.3 0.0
19/03:30am 1.6 -2.2 -0.6 85 0.8 NE 9 11 5 6 1027.2 1027.2 0.0
19/03:00am 1.1 -2.9 -2.1 79 1.1 NE 9 9 5 5 1027.1 1027.1 0.0
19/02:30am 2.0 -1.8 -0.6 83 0.9 NE 9 9 5 5 1027.2 1027.2 0.0
19/02:00am 1.3 -2.6 -1.8 80 1.1 NE 9 9 5 5 1027.5 1027.5 0.0
19/01:30am 1.6 -1.7 -1.3 81 1.0 N 6 7 3 4 1027.5 1027.5 0.0
19/01:00am 1.2 -2.2 -1.9 80 1.1 NE 6 7 3 4 1027.5 1027.5 0.0
19/12:30am 1.5 -1.8 -1.4 81 1.0 E 6 9 3 5 1027.1 1027.1 0.0
19/12:00am 1.6 -1.8 -1.8 78 1.2 ESE 6 6 3 3 1027.3 1027.3 0.0
 
Date/Time
CST
Temp
°C
App
Temp
°C
Dew
Point
°C
Rel
Hum
%
Delta-T
°C
Wind Press
QNH
hPa
Press
MSL
hPa
Rain since
9am
mm
Dir  Spd
km/h
Gust
km/h
Spd
kts
Gust
kts
18/11:30pm 1.9 -0.3 -1.5 78 1.2 CALM 0 0 0 0 1028.0 1028.1 0.0
18/11:00pm 2.4 -0.9 -1.0 78 1.2 SE 6 6 3 3 1028.3 1028.4 0.0
18/10:30pm 2.6 -0.8 -1.7 73 1.5 SE 6 7 3 4 1028.6 1028.7 0.0
18/10:00pm 3.6 1.5 -0.8 73 1.6 CALM 0 0 0 0 1028.5 1028.6 0.0
18/09:30pm 4.2 2.1 -0.8 70 1.8 CALM 0 0 0 0 1028.5 1028.6 0.0
18/09:00pm 4.8 1.6 -0.6 68 2.0 NE 6 7 3 4 1028.3 1028.4 0.0
18/08:30pm 6.2 2.8 -0.5 62 2.5 E 7 9 4 5 1028.0 1028.1 0.0
18/08:00pm 8.2 4.2 0.4 58 3.1 E 11 13 6 7 1027.9 1028.0 0.0
18/07:30pm 9.0 5.4 0.7 56 3.3 ENE 9 11 5 6 1027.4 1027.4 0.0
18/07:00pm 9.7 5.4 0.9 54 3.6 ENE 13 15 7 8 1026.6 1026.6 0.0
18/06:30pm 10.4 6.1 1.0 52 3.9 E 13 17 7 9 1026.9 1026.9 0.0
18/06:00pm 11.1 7.5 0.8 49 4.3 E 9 11 5 6 1027.4 1027.4 0.0
18/05:30pm 12.4 9.3 1.1 46 4.8 E 7 11 4 6 1027.4 1027.4 0.0
18/05:00pm 13.5 10.0 1.2 43 5.3 ESE 9 15 5 8 1027.5 1027.5 0.0
18/04:30pm 14.0 10.5 1.3 42 5.5 SE 9 17 5 9 1027.6 1027.6 0.0
18/04:00pm 13.9 10.0 1.2 42 5.5 ESE 11 17 6 9 1027.6 1027.6 0.0
18/03:30pm 14.4 11.4 1.7 42 5.5 SSE 7 15 4 8 1027.5 1027.5 0.0
18/03:00pm 14.1 10.3 1.7 43 5.4 SE 11 17 6 9 1027.9 1028.0 0.0
18/02:30pm 14.3 11.0 2.2 44 5.3 S 9 17 5 9 1028.2 1028.3 0.0
18/02:00pm 13.9 10.5 1.9 44 5.3 SE 9 17 5 9 1028.5 1028.6 0.0
18/01:30pm 13.8 10.4 1.8 44 5.2 ESE 9 17 5 9 1028.8 1028.9 0.0
18/01:00pm 13.6 10.6 1.9 45 5.1 SE 7 15 4 8 1029.4 1029.5 0.0
18/12:30pm 13.1 9.3 1.8 46 4.9 ENE 11 20 6 11 1029.8 1029.9 0.0
18/12:00pm 12.8 9.4 2.1 48 4.6 E 9 15 5 8 1030.5 1030.6 0.0
18/11:30am 11.8 8.1 2.3 52 4.1 SSE 11 17 6 9 1031.2 1031.3 0.0
18/11:00am 11.6 7.6 2.6 54 3.9 SE 13 17 7 9 1031.5 1031.6 0.0
18/10:30am 11.2 7.7 3.3 58 3.5 E 11 20 6 11 1031.5 1031.6 0.0
18/10:00am 11.2 7.3 3.5 59 3.4 SE 13 20 7 11 1031.7 1031.8 0.0
18/09:30am 10.9 7.5 4.1 63 3.0 SSE 11 15 6 8 1031.5 1031.6 0.0
18/09:00am 10.5 7.2 4.6 67 2.6 SE 11 17 6 9 1031.3 1031.4 0.0
18/08:30am 10.0 7.2 5.0 71 2.2 SE 9 13 5 7 1031.1 1031.2 0.0
18/08:00am 9.6 7.2 5.2 74 2.0 SSE 7 9 4 5 1030.9 1031.0 0.0
18/07:30am 9.3 6.5 5.1 75 1.9 S 9 11 5 6 1030.9 1031.0 0.0
18/07:00am 9.3 6.1 5.1 75 1.9 SSE 11 19 6 10 1030.5 1030.6 0.0
18/06:30am 8.4 5.9 5.0 79 1.5 SSE 7 9 4 5 1030.3 1030.4 0.0
18/06:00am 7.7 5.2 4.5 80 1.4 SSE 7 11 4 6 1030.0 1030.1 0.0
18/05:30am 6.8 5.1 3.8 81 1.3 S 2 7 1 4 1029.8 1029.9 0.0
18/05:00am 5.7 3.1 3.2 84 1.0 SSE 6 7 3 4 1029.6 1029.7 0.0
18/04:30am 4.4 2.8 2.4 87 0.8 CALM 0 0 0 0 1029.5 1029.6 0.0
18/04:00am 3.3 1.5 1.2 86 0.8 CALM 0 0 0 0 1029.4 1029.5 0.0
18/03:30am 3.1 1.3 1.2 87 0.7 CALM 0 0 0 0 1029.5 1029.6 0.0
18/03:00am 3.4 1.6 1.3 86 0.8 CALM 0 0 0 0 1029.4 1029.5 0.0
18/02:30am 2.0 0.0 -0.4 84 0.9 CALM 0 0 0 0 1029.6 1029.7 0.0
18/02:00am 2.4 -0.8 -0.2 83 1.0 S 6 6 3 3 1029.6 1029.7 0.0
18/01:30am 2.5 -0.7 -0.4 81 1.1 SSE 6 7 3 4 1029.7 1029.8 0.0
18/01:00am 3.3 0.1 0.5 82 1.1 SSE 7 9 4 5 1029.7 1029.8 0.0
18/12:30am 3.8 0.6 0.7 80 1.2 S 7 7 4 4 1029.9 1030.0 0.0
18/12:00am 3.9 0.8 0.1 76 1.4 SSE 6 7 3 4 1030.1 1030.2 0.0
 
Date/Time
CST
Temp
°C
App
Temp
°C
Dew
Point
°C
Rel
Hum
%
Delta-T
°C
Wind Press
QNH
hPa
Press
MSL
hPa
Rain since
9am
mm
Dir  Spd
km/h
Gust
km/h
Spd
kts
Gust
kts
17/11:30pm 4.8 1.3 1.1 77 1.4 SSE 9 9 5 5 1030.3 1030.4 0.0
17/11:00pm 5.2 2.2 0.6 72 1.8 S 6 7 3 4 1030.3 1030.4 0.0
17/10:30pm 6.5 3.6 1.2 69 2.1 S 6 11 3 6 1030.2 1030.3 0.0
17/10:00pm 8.0 4.9 1.4 63 2.7 SW 7 9 4 5 1030.1 1030.2 0.0
17/09:30pm 9.1 5.0 2.0 61 3.0 SSW 13 17 7 9 1030.1 1030.2 0.0
17/09:00pm 7.7 3.9 1.5 65 2.5 SW 11 13 6 7 1030.1 1030.2 0.0
17/08:30pm 8.0 5.0 1.8 65 2.5 SSW 7 9 4 5 1030.1 1030.2 0.0
17/08:00pm 7.2 4.2 1.1 65 2.5 SSW 6 7 3 4 1030.0 1030.1 0.0
17/07:30pm 8.7 5.8 1.6 61 2.9 SW 6 7 3 4 1029.9 1030.0 0.0
17/07:00pm 9.7 6.5 0.9 54 3.6 SSW 7 9 4 5 1029.7 1029.8 0.0
17/06:30pm 11.4 7.9 1.4 50 4.2 S 9 11 5 6 1029.4 1029.5 0.0
17/06:00pm 12.6 8.4 1.6 47 4.7 S 13 19 7 10 1029.3 1029.4 0.0
17/05:30pm 13.3 8.0 1.6 45 5.0 S 19 28 10 15 1029.0 1029.1 0.0
17/05:00pm 14.2 8.7 2.1 44 5.3 S 20 30 11 16 1028.8 1028.9 0.0
17/04:30pm 14.7 8.8 1.9 42 5.6 SSW 22 32 12 17 1028.8 1028.9 0.0
17/04:00pm 15.1 9.2 1.6 40 5.9 SSW 22 32 12 17 1028.8 1028.9 0.0
17/03:30pm 15.1 9.2 1.6 40 5.9 SSW 22 30 12 16 1028.8 1028.9 0.0
17/03:00pm 15.2 9.3 1.4 39 6.0 S 22 30 12 16 1028.7 1028.8 0.0
17/02:30pm 15.1 9.5 1.3 39 6.0 S 20 32 11 17 1028.7 1028.8 0.0
17/02:00pm 15.0 9.6 1.5 40 5.9 S 19 30 10 16 1029.0 1029.1 0.0
17/01:30pm 15.1 9.6 2.0 41 5.8 SSE 20 28 11 15 1029.1 1029.2 0.0
17/01:00pm 14.6 9.4 2.2 43 5.5 S 19 28 10 15 1029.5 1029.6 0.0
17/12:30pm 13.9 8.1 2.2 45 5.1 SSE 22 35 12 19 1030.0 1030.1 0.0
17/12:00pm 14.2 8.8 2.5 45 5.2 SSE 20 28 11 15 1030.4 1030.5 0.0
17/11:30am 13.5 8.1 2.4 47 4.9 S 20 28 11 15 1030.6 1030.7 0.0
17/11:00am 12.9 7.8 3.0 51 4.4 S 19 26 10 14 1030.9 1031.0 0.0
17/10:30am 12.6 7.9 3.3 53 4.1 SSW 17 22 9 12 1031.3 1031.4 0.0
17/10:00am 11.6 7.8 4.1 60 3.4 S 13 19 7 10 1031.4 1031.5 0.0
17/09:30am 10.0 5.5 4.2 67 2.6 SSW 17 22 9 12 1031.3 1031.4 0.0
17/09:00am 9.0 4.6 4.6 74 1.9 SSW 17 22 9 12 1030.9 1031.0 0.0
17/08:30am 7.4 4.9 5.0 85 1.1 SSW 7 15 4 8 1030.5 1030.6 0.0
17/08:00am 5.5 3.5 4.3 92 0.5 SSW 4 6 2 3 1030.2 1030.3 0.0
17/07:30am 4.9 1.8 3.7 92 0.5 SSW 9 11 5 6 1029.8 1029.9 0.0
17/07:00am 5.8 2.5 4.4 91 0.6 SW 11 13 6 7 1029.4 1029.5 0.0
17/06:30am 5.8 2.8 4.3 90 0.6 SW 9 11 5 6 1029.1 1029.2 0.0
17/06:00am 6.5 2.8 4.7 88 0.8 SSW 13 15 7 8 1028.7 1028.8 0.0
17/05:30am 7.1 3.5 4.8 85 1.0 SSW 13 17 7 9 1028.5 1028.6 0.0
17/05:00am 7.5 3.5 5.0 84 1.1 SW 15 17 8 9 1028.4 1028.5 0.0
17/04:30am 7.8 3.8 4.9 82 1.3 SW 15 19 8 10 1028.3 1028.4 0.0
17/04:00am 7.6 4.3 4.6 81 1.3 SW 11 15 6 8 1028.3 1028.4 0.0
17/03:30am 8.1 4.8 4.7 79 1.5 SSW 11 15 6 8 1028.2 1028.3 0.0
17/03:00am 8.1 4.3 4.1 76 1.7 SW 13 15 7 8 1028.2 1028.3 0.0
17/02:30am 8.5 5.1 4.1 74 1.9 SW 11 15 6 8 1028.2 1028.3 0.0
17/02:00am 9.3 5.9 4.1 70 2.3 SSW 11 15 6 8 1028.2 1028.3 0.0
17/01:30am 10.3 6.1 4.0 65 2.8 SSW 15 17 8 9 1027.9 1028.0 0.0
17/01:00am 11.1 6.4 3.2 58 3.5 S 17 26 9 14 1028.1 1028.2 0.0
17/12:30am 11.2 6.7 2.2 54 3.8 SSW 15 19 8 10 1028.2 1028.3 0.0
17/12:00am 11.4 6.5 1.9 52 4.0 SSW 17 22 9 12 1028.2 1028.3 0.0

Other Formats:

Comma delimited format used in spreadsheet applications
http://www.bom.gov.au/fwo/IDS60801/IDS60801.95658.axf

JavaScript Object Notation format (JSON) in row-major order
http://www.bom.gov.au/fwo/IDS60801/IDS60801.95658.json